sensor_id;sensor_type;location;lat;lon;timestamp;P1;durP1;ratioP1;P2;durP2;ratioP2
79792;SDS011;69279;49.072;17.462;2023-06-22T00:01:22;12.52;;;6.53;;
79792;SDS011;69279;49.072;17.462;2023-06-22T00:03:48;11.70;;;6.43;;
79792;SDS011;69279;49.072;17.462;2023-06-22T00:06:14;13.30;;;6.82;;
79792;SDS011;69279;49.072;17.462;2023-06-22T00:08:40;13.20;;;5.88;;
79792;SDS011;69279;49.072;17.462;2023-06-22T00:11:05;14.18;;;5.68;;
79792;SDS011;69279;49.072;17.462;2023-06-22T00:13:32;10.35;;;5.07;;
79792;SDS011;69279;49.072;17.462;2023-06-22T00:15:57;10.50;;;5.50;;
79792;SDS011;69279;49.072;17.462;2023-06-22T00:18:22;12.85;;;5.43;;
79792;SDS011;69279;49.072;17.462;2023-06-22T00:20:52;10.02;;;5.85;;
79792;SDS011;69279;49.072;17.462;2023-06-22T00:23:22;10.63;;;5.63;;
79792;SDS011;69279;49.072;17.462;2023-06-22T00:25:49;9.65;;;5.22;;
79792;SDS011;69279;49.072;17.462;2023-06-22T00:28:15;10.00;;;5.03;;
79792;SDS011;69279;49.072;17.462;2023-06-22T00:30:40;14.05;;;6.10;;
79792;SDS011;69279;49.072;17.462;2023-06-22T00:33:06;13.35;;;5.80;;
79792;SDS011;69279;49.072;17.462;2023-06-22T00:35:33;11.52;;;5.40;;
79792;SDS011;69279;49.072;17.462;2023-06-22T00:38:00;13.48;;;5.22;;
79792;SDS011;69279;49.072;17.462;2023-06-22T00:40:29;11.45;;;6.18;;
79792;SDS011;69279;49.072;17.462;2023-06-22T00:42:56;11.60;;;6.28;;
79792;SDS011;69279;49.072;17.462;2023-06-22T00:45:22;11.75;;;5.93;;
79792;SDS011;69279;49.072;17.462;2023-06-22T00:47:49;11.15;;;5.85;;
79792;SDS011;69279;49.072;17.462;2023-06-22T00:50:18;13.10;;;5.63;;
79792;SDS011;69279;49.072;17.462;2023-06-22T00:52:47;11.85;;;6.18;;
79792;SDS011;69279;49.072;17.462;2023-06-22T00:55:13;11.05;;;6.13;;
79792;SDS011;69279;49.072;17.462;2023-06-22T00:57:43;13.95;;;6.60;;
79792;SDS011;69279;49.072;17.462;2023-06-22T01:00:11;12.45;;;6.88;;
79792;SDS011;69279;49.072;17.462;2023-06-22T01:02:43;13.63;;;7.32;;
79792;SDS011;69279;49.072;17.462;2023-06-22T01:05:12;12.93;;;7.03;;
79792;SDS011;69279;49.072;17.462;2023-06-22T01:10:25;17.92;;;8.68;;
79792;SDS011;69279;49.072;17.462;2023-06-22T01:12:57;17.40;;;8.50;;
79792;SDS011;69279;49.072;17.462;2023-06-22T01:18:03;16.08;;;7.60;;
79792;SDS011;69279;49.072;17.462;2023-06-22T01:20:30;14.02;;;7.55;;
79792;SDS011;69279;49.072;17.462;2023-06-22T01:23:16;16.15;;;7.50;;
79792;SDS011;69279;49.072;17.462;2023-06-22T01:28:46;15.40;;;8.52;;
79792;SDS011;69279;49.072;17.462;2023-06-22T01:31:15;17.50;;;7.75;;
79792;SDS011;69279;49.072;17.462;2023-06-22T01:33:43;15.07;;;8.40;;
79792;SDS011;69279;49.072;17.462;2023-06-22T01:36:10;13.40;;;7.25;;
79792;SDS011;69279;49.072;17.462;2023-06-22T01:38:36;15.35;;;7.50;;
79792;SDS011;69279;49.072;17.462;2023-06-22T01:41:02;13.90;;;7.00;;
79792;SDS011;69279;49.072;17.462;2023-06-22T01:43:27;13.50;;;6.80;;
79792;SDS011;69279;49.072;17.462;2023-06-22T01:45:54;16.50;;;7.45;;
79792;SDS011;69279;49.072;17.462;2023-06-22T01:48:20;17.05;;;7.20;;
79792;SDS011;69279;49.072;17.462;2023-06-22T01:50:46;17.63;;;7.55;;
79792;SDS011;69279;49.072;17.462;2023-06-22T01:53:12;16.63;;;7.50;;
79792;SDS011;69279;49.072;17.462;2023-06-22T01:55:37;14.23;;;8.10;;
79792;SDS011;69279;49.072;17.462;2023-06-22T01:58:03;15.32;;;8.07;;
79792;SDS011;69279;49.072;17.462;2023-06-22T02:00:28;16.92;;;7.65;;
79792;SDS011;69279;49.072;17.462;2023-06-22T02:02:59;15.77;;;7.18;;
79792;SDS011;69279;49.072;17.462;2023-06-22T02:05:26;14.90;;;7.88;;
79792;SDS011;69279;49.072;17.462;2023-06-22T02:07:59;16.75;;;7.55;;
79792;SDS011;69279;49.072;17.462;2023-06-22T02:10:37;14.30;;;7.30;;
79792;SDS011;69279;49.072;17.462;2023-06-22T02:13:04;21.70;;;8.20;;
79792;SDS011;69279;49.072;17.462;2023-06-22T02:15:31;28.35;;;9.38;;
79792;SDS011;69279;49.072;17.462;2023-06-22T02:17:57;22.55;;;8.98;;
79792;SDS011;69279;49.072;17.462;2023-06-22T02:20:23;24.13;;;8.25;;
79792;SDS011;69279;49.072;17.462;2023-06-22T02:22:48;27.50;;;8.45;;
79792;SDS011;69279;49.072;17.462;2023-06-22T02:25:14;17.48;;;8.00;;
79792;SDS011;69279;49.072;17.462;2023-06-22T02:27:39;19.33;;;7.55;;
79792;SDS011;69279;49.072;17.462;2023-06-22T02:30:06;20.30;;;8.18;;
79792;SDS011;69279;49.072;17.462;2023-06-22T02:32:35;20.08;;;8.05;;
79792;SDS011;69279;49.072;17.462;2023-06-22T02:35:02;22.55;;;8.23;;
79792;SDS011;69279;49.072;17.462;2023-06-22T02:37:31;22.35;;;8.48;;
79792;SDS011;69279;49.072;17.462;2023-06-22T02:39:57;29.60;;;8.93;;
79792;SDS011;69279;49.072;17.462;2023-06-22T02:42:22;24.60;;;8.13;;
79792;SDS011;69279;49.072;17.462;2023-06-22T02:44:48;29.58;;;8.65;;
79792;SDS011;69279;49.072;17.462;2023-06-22T02:47:13;24.52;;;8.38;;
79792;SDS011;69279;49.072;17.462;2023-06-22T02:49:38;28.65;;;8.82;;
79792;SDS011;69279;49.072;17.462;2023-06-22T02:52:04;24.73;;;10.48;;
79792;SDS011;69279;49.072;17.462;2023-06-22T02:54:30;26.67;;;9.60;;
79792;SDS011;69279;49.072;17.462;2023-06-22T02:56:56;27.20;;;9.52;;
79792;SDS011;69279;49.072;17.462;2023-06-22T02:59:21;29.90;;;9.63;;
79792;SDS011;69279;49.072;17.462;2023-06-22T03:01:49;21.70;;;9.15;;
79792;SDS011;69279;49.072;17.462;2023-06-22T03:04:15;24.83;;;9.23;;
79792;SDS011;69279;49.072;17.462;2023-06-22T03:06:40;25.15;;;10.48;;
79792;SDS011;69279;49.072;17.462;2023-06-22T03:09:06;17.55;;;7.65;;
79792;SDS011;69279;49.072;17.462;2023-06-22T03:11:32;16.15;;;6.88;;
79792;SDS011;69279;49.072;17.462;2023-06-22T03:13:58;13.52;;;6.75;;
79792;SDS011;69279;49.072;17.462;2023-06-22T03:16:23;14.45;;;7.05;;
79792;SDS011;69279;49.072;17.462;2023-06-22T03:18:49;13.85;;;7.05;;
79792;SDS011;69279;49.072;17.462;2023-06-22T03:21:14;11.52;;;6.45;;
79792;SDS011;69279;49.072;17.462;2023-06-22T03:23:40;11.48;;;5.97;;
79792;SDS011;69279;49.072;17.462;2023-06-22T03:26:06;12.43;;;5.78;;
79792;SDS011;69279;49.072;17.462;2023-06-22T03:28:33;12.57;;;5.70;;
79792;SDS011;69279;49.072;17.462;2023-06-22T03:30:58;12.52;;;6.50;;
79792;SDS011;69279;49.072;17.462;2023-06-22T03:33:24;11.43;;;5.95;;
79792;SDS011;69279;49.072;17.462;2023-06-22T03:35:49;9.95;;;6.00;;
79792;SDS011;69279;49.072;17.462;2023-06-22T03:38:15;12.27;;;6.47;;
79792;SDS011;69279;49.072;17.462;2023-06-22T03:40:41;12.13;;;6.20;;
79792;SDS011;69279;49.072;17.462;2023-06-22T03:43:06;13.38;;;6.50;;
79792;SDS011;69279;49.072;17.462;2023-06-22T03:45:31;10.32;;;5.55;;
79792;SDS011;69279;49.072;17.462;2023-06-22T03:47:58;10.73;;;6.10;;
79792;SDS011;69279;49.072;17.462;2023-06-22T03:50:23;11.05;;;5.90;;
79792;SDS011;69279;49.072;17.462;2023-06-22T03:52:48;11.10;;;5.70;;
79792;SDS011;69279;49.072;17.462;2023-06-22T03:55:16;11.75;;;5.57;;
79792;SDS011;69279;49.072;17.462;2023-06-22T03:57:42;12.32;;;6.25;;
79792;SDS011;69279;49.072;17.462;2023-06-22T04:00:07;13.13;;;6.43;;
79792;SDS011;69279;49.072;17.462;2023-06-22T04:02:33;13.15;;;6.40;;
79792;SDS011;69279;49.072;17.462;2023-06-22T04:05:00;14.48;;;6.75;;
79792;SDS011;69279;49.072;17.462;2023-06-22T04:07:26;10.88;;;6.50;;
79792;SDS011;69279;49.072;17.462;2023-06-22T04:09:51;11.65;;;6.43;;
79792;SDS011;69279;49.072;17.462;2023-06-22T04:12:16;10.85;;;5.97;;
79792;SDS011;69279;49.072;17.462;2023-06-22T04:14:42;14.52;;;6.57;;
79792;SDS011;69279;49.072;17.462;2023-06-22T04:17:07;9.77;;;6.28;;
79792;SDS011;69279;49.072;17.462;2023-06-22T04:19:32;11.93;;;5.90;;
79792;SDS011;69279;49.072;17.462;2023-06-22T04:21:58;11.10;;;6.00;;
79792;SDS011;69279;49.072;17.462;2023-06-22T04:24:23;12.15;;;6.35;;
79792;SDS011;69279;49.072;17.462;2023-06-22T04:26:49;11.25;;;6.40;;
79792;SDS011;69279;49.072;17.462;2023-06-22T04:29:18;13.77;;;6.32;;
79792;SDS011;69279;49.072;17.462;2023-06-22T04:31:44;16.98;;;6.93;;
79792;SDS011;69279;49.072;17.462;2023-06-22T04:34:09;13.95;;;7.50;;
79792;SDS011;69279;49.072;17.462;2023-06-22T04:36:39;15.95;;;7.32;;
79792;SDS011;69279;49.072;17.462;2023-06-22T04:39:05;14.30;;;7.10;;
79792;SDS011;69279;49.072;17.462;2023-06-22T04:41:38;16.17;;;7.82;;
79792;SDS011;69279;49.072;17.462;2023-06-22T04:44:11;16.65;;;8.38;;
79792;SDS011;69279;49.072;17.462;2023-06-22T04:46:37;20.13;;;8.45;;
79792;SDS011;69279;49.072;17.462;2023-06-22T04:49:04;18.80;;;8.32;;
79792;SDS011;69279;49.072;17.462;2023-06-22T04:51:31;16.17;;;8.32;;
79792;SDS011;69279;49.072;17.462;2023-06-22T04:53:57;18.10;;;8.05;;
79792;SDS011;69279;49.072;17.462;2023-06-22T04:56:26;18.38;;;9.55;;
79792;SDS011;69279;49.072;17.462;2023-06-22T04:58:53;17.35;;;8.60;;
79792;SDS011;69279;49.072;17.462;2023-06-22T05:01:21;19.38;;;10.35;;
79792;SDS011;69279;49.072;17.462;2023-06-22T05:03:47;18.30;;;9.27;;
79792;SDS011;69279;49.072;17.462;2023-06-22T05:06:13;20.35;;;9.68;;
79792;SDS011;69279;49.072;17.462;2023-06-22T05:08:39;17.00;;;8.70;;
79792;SDS011;69279;49.072;17.462;2023-06-22T05:11:05;17.60;;;8.93;;
79792;SDS011;69279;49.072;17.462;2023-06-22T05:13:30;16.35;;;8.45;;
79792;SDS011;69279;49.072;17.462;2023-06-22T05:15:56;19.23;;;9.60;;
79792;SDS011;69279;49.072;17.462;2023-06-22T05:18:27;16.25;;;8.77;;
79792;SDS011;69279;49.072;17.462;2023-06-22T05:20:54;17.30;;;8.75;;
79792;SDS011;69279;49.072;17.462;2023-06-22T05:23:19;17.77;;;8.57;;
79792;SDS011;69279;49.072;17.462;2023-06-22T05:25:45;20.40;;;9.68;;
79792;SDS011;69279;49.072;17.462;2023-06-22T05:28:11;19.38;;;9.93;;
79792;SDS011;69279;49.072;17.462;2023-06-22T05:30:38;19.25;;;8.80;;
79792;SDS011;69279;49.072;17.462;2023-06-22T05:33:03;19.75;;;9.32;;
79792;SDS011;69279;49.072;17.462;2023-06-22T05:35:29;16.83;;;9.43;;
79792;SDS011;69279;49.072;17.462;2023-06-22T05:37:54;19.30;;;9.15;;
79792;SDS011;69279;49.072;17.462;2023-06-22T05:40:20;20.88;;;9.43;;
79792;SDS011;69279;49.072;17.462;2023-06-22T05:42:55;21.58;;;9.25;;
79792;SDS011;69279;49.072;17.462;2023-06-22T05:45:21;19.83;;;9.40;;
79792;SDS011;69279;49.072;17.462;2023-06-22T05:47:53;18.70;;;9.82;;
79792;SDS011;69279;49.072;17.462;2023-06-22T05:50:19;16.40;;;9.00;;
79792;SDS011;69279;49.072;17.462;2023-06-22T05:52:50;18.50;;;8.80;;
79792;SDS011;69279;49.072;17.462;2023-06-22T05:55:19;15.90;;;8.60;;
79792;SDS011;69279;49.072;17.462;2023-06-22T05:57:48;14.32;;;7.93;;
79792;SDS011;69279;49.072;17.462;2023-06-22T06:00:18;15.40;;;8.15;;
79792;SDS011;69279;49.072;17.462;2023-06-22T06:02:49;14.48;;;8.13;;
79792;SDS011;69279;49.072;17.462;2023-06-22T06:05:28;15.23;;;8.57;;
79792;SDS011;69279;49.072;17.462;2023-06-22T06:07:55;16.90;;;8.57;;
79792;SDS011;69279;49.072;17.462;2023-06-22T06:10:21;13.38;;;7.45;;
79792;SDS011;69279;49.072;17.462;2023-06-22T06:12:48;15.27;;;8.93;;
79792;SDS011;69279;49.072;17.462;2023-06-22T06:15:13;16.38;;;8.57;;
79792;SDS011;69279;49.072;17.462;2023-06-22T06:17:52;14.70;;;8.57;;
79792;SDS011;69279;49.072;17.462;2023-06-22T06:20:19;15.68;;;9.77;;
79792;SDS011;69279;49.072;17.462;2023-06-22T06:22:50;18.10;;;9.27;;
79792;SDS011;69279;49.072;17.462;2023-06-22T06:25:15;16.70;;;9.10;;
79792;SDS011;69279;49.072;17.462;2023-06-22T06:30:38;16.92;;;8.65;;
79792;SDS011;69279;49.072;17.462;2023-06-22T06:33:04;15.43;;;8.93;;
79792;SDS011;69279;49.072;17.462;2023-06-22T06:35:33;15.63;;;8.90;;
79792;SDS011;69279;49.072;17.462;2023-06-22T06:38:02;16.90;;;8.85;;
79792;SDS011;69279;49.072;17.462;2023-06-22T06:40:28;16.20;;;8.80;;
79792;SDS011;69279;49.072;17.462;2023-06-22T06:42:53;17.13;;;9.30;;
79792;SDS011;69279;49.072;17.462;2023-06-22T06:45:32;15.43;;;8.27;;
79792;SDS011;69279;49.072;17.462;2023-06-22T06:47:59;16.40;;;9.13;;
79792;SDS011;69279;49.072;17.462;2023-06-22T06:50:25;15.93;;;9.20;;
79792;SDS011;69279;49.072;17.462;2023-06-22T06:52:50;14.93;;;8.85;;
79792;SDS011;69279;49.072;17.462;2023-06-22T06:55:18;14.20;;;8.50;;
79792;SDS011;69279;49.072;17.462;2023-06-22T06:57:44;13.93;;;8.70;;
79792;SDS011;69279;49.072;17.462;2023-06-22T07:00:13;13.30;;;7.47;;
79792;SDS011;69279;49.072;17.462;2023-06-22T07:02:41;11.82;;;7.82;;
79792;SDS011;69279;49.072;17.462;2023-06-22T07:05:07;13.32;;;9.00;;
79792;SDS011;69279;49.072;17.462;2023-06-22T07:07:33;11.88;;;8.00;;
79792;SDS011;69279;49.072;17.462;2023-06-22T07:10:00;12.52;;;8.27;;
79792;SDS011;69279;49.072;17.462;2023-06-22T07:12:27;10.60;;;6.97;;
79792;SDS011;69279;49.072;17.462;2023-06-22T07:14:56;10.95;;;7.57;;
79792;SDS011;69279;49.072;17.462;2023-06-22T07:17:27;10.70;;;7.35;;
79792;SDS011;69279;49.072;17.462;2023-06-22T07:19:52;12.73;;;7.93;;
79792;SDS011;69279;49.072;17.462;2023-06-22T07:22:17;12.35;;;7.75;;
79792;SDS011;69279;49.072;17.462;2023-06-22T07:24:43;11.00;;;8.45;;
79792;SDS011;69279;49.072;17.462;2023-06-22T07:27:11;11.52;;;8.05;;
79792;SDS011;69279;49.072;17.462;2023-06-22T07:29:37;12.68;;;8.05;;
79792;SDS011;69279;49.072;17.462;2023-06-22T07:32:05;11.13;;;7.53;;
79792;SDS011;69279;49.072;17.462;2023-06-22T07:37:33;8.65;;;7.25;;
79792;SDS011;69279;49.072;17.462;2023-06-22T07:40:00;10.63;;;7.47;;
79792;SDS011;69279;49.072;17.462;2023-06-22T07:42:26;9.90;;;7.10;;
79792;SDS011;69279;49.072;17.462;2023-06-22T07:44:52;11.27;;;7.68;;
79792;SDS011;69279;49.072;17.462;2023-06-22T07:47:22;12.65;;;7.68;;
79792;SDS011;69279;49.072;17.462;2023-06-22T07:49:54;12.18;;;7.43;;
79792;SDS011;69279;49.072;17.462;2023-06-22T07:52:22;11.50;;;7.85;;
79792;SDS011;69279;49.072;17.462;2023-06-22T07:54:51;10.05;;;7.25;;
79792;SDS011;69279;49.072;17.462;2023-06-22T07:57:16;10.18;;;6.90;;
79792;SDS011;69279;49.072;17.462;2023-06-22T07:59:42;10.18;;;8.02;;
79792;SDS011;69279;49.072;17.462;2023-06-22T08:02:08;11.10;;;7.85;;
79792;SDS011;69279;49.072;17.462;2023-06-22T08:04:34;11.75;;;8.68;;
79792;SDS011;69279;49.072;17.462;2023-06-22T08:07:00;10.07;;;7.43;;
79792;SDS011;69279;49.072;17.462;2023-06-22T08:09:30;11.75;;;8.73;;
79792;SDS011;69279;49.072;17.462;2023-06-22T08:11:57;9.95;;;8.15;;
79792;SDS011;69279;49.072;17.462;2023-06-22T08:14:25;11.45;;;7.65;;
79792;SDS011;69279;49.072;17.462;2023-06-22T08:16:51;10.05;;;7.85;;
79792;SDS011;69279;49.072;17.462;2023-06-22T08:19:17;11.50;;;8.10;;
79792;SDS011;69279;49.072;17.462;2023-06-22T08:21:49;10.60;;;7.47;;
79792;SDS011;69279;49.072;17.462;2023-06-22T08:24:15;11.52;;;7.57;;
79792;SDS011;69279;49.072;17.462;2023-06-22T08:26:41;11.95;;;7.93;;
79792;SDS011;69279;49.072;17.462;2023-06-22T08:29:07;10.57;;;6.88;;
79792;SDS011;69279;49.072;17.462;2023-06-22T08:31:33;9.77;;;7.10;;
79792;SDS011;69279;49.072;17.462;2023-06-22T08:36:53;10.07;;;7.65;;
79792;SDS011;69279;49.072;17.462;2023-06-22T08:39:19;9.40;;;7.07;;
79792;SDS011;69279;49.072;17.462;2023-06-22T08:41:49;10.07;;;7.07;;
79792;SDS011;69279;49.072;17.462;2023-06-22T08:44:17;10.52;;;6.95;;
79792;SDS011;69279;49.072;17.462;2023-06-22T08:46:43;9.38;;;7.30;;
79792;SDS011;69279;49.072;17.462;2023-06-22T08:49:10;9.95;;;7.32;;
79792;SDS011;69279;49.072;17.462;2023-06-22T08:51:36;12.80;;;7.30;;
79792;SDS011;69279;49.072;17.462;2023-06-22T08:54:02;9.55;;;7.53;;
79792;SDS011;69279;49.072;17.462;2023-06-22T08:56:27;11.38;;;7.43;;
79792;SDS011;69279;49.072;17.462;2023-06-22T08:58:53;9.93;;;6.90;;
79792;SDS011;69279;49.072;17.462;2023-06-22T09:04:14;9.73;;;7.43;;
79792;SDS011;69279;49.072;17.462;2023-06-22T09:06:40;10.52;;;7.43;;
79792;SDS011;69279;49.072;17.462;2023-06-22T09:09:10;10.00;;;7.38;;
79792;SDS011;69279;49.072;17.462;2023-06-22T09:11:37;9.27;;;7.70;;
79792;SDS011;69279;49.072;17.462;2023-06-22T09:14:02;10.15;;;7.38;;
79792;SDS011;69279;49.072;17.462;2023-06-22T09:16:28;10.10;;;7.22;;
79792;SDS011;69279;49.072;17.462;2023-06-22T09:18:56;10.07;;;7.65;;
79792;SDS011;69279;49.072;17.462;2023-06-22T09:21:23;9.43;;;7.45;;
79792;SDS011;69279;49.072;17.462;2023-06-22T09:23:51;8.43;;;6.72;;
79792;SDS011;69279;49.072;17.462;2023-06-22T09:26:26;8.65;;;7.47;;
79792;SDS011;69279;49.072;17.462;2023-06-22T09:29:33;10.70;;;7.95;;
79792;SDS011;69279;49.072;17.462;2023-06-22T09:32:31;11.90;;;7.68;;
79792;SDS011;69279;49.072;17.462;2023-06-22T09:34:57;8.88;;;7.90;;
79792;SDS011;69279;49.072;17.462;2023-06-22T09:37:22;8.65;;;7.75;;
79792;SDS011;69279;49.072;17.462;2023-06-22T09:39:49;9.38;;;7.82;;
79792;SDS011;69279;49.072;17.462;2023-06-22T09:42:14;10.05;;;8.70;;
79792;SDS011;69279;49.072;17.462;2023-06-22T09:44:40;11.43;;;8.52;;
79792;SDS011;69279;49.072;17.462;2023-06-22T09:47:05;13.18;;;9.45;;
79792;SDS011;69279;49.072;17.462;2023-06-22T09:52:27;13.00;;;9.13;;
79792;SDS011;69279;49.072;17.462;2023-06-22T09:54:52;10.95;;;9.05;;
79792;SDS011;69279;49.072;17.462;2023-06-22T09:57:19;13.88;;;9.32;;
79792;SDS011;69279;49.072;17.462;2023-06-22T09:59:44;12.52;;;9.73;;
79792;SDS011;69279;49.072;17.462;2023-06-22T10:02:11;11.38;;;10.00;;
79792;SDS011;69279;49.072;17.462;2023-06-22T10:04:37;14.48;;;9.52;;
79792;SDS011;69279;49.072;17.462;2023-06-22T10:07:05;10.73;;;9.63;;
79792;SDS011;69279;49.072;17.462;2023-06-22T10:09:34;11.00;;;9.18;;
79792;SDS011;69279;49.072;17.462;2023-06-22T10:12:04;10.65;;;9.38;;
79792;SDS011;69279;49.072;17.462;2023-06-22T10:14:31;10.45;;;9.18;;
79792;SDS011;69279;49.072;17.462;2023-06-22T10:16:56;11.82;;;9.60;;
79792;SDS011;69279;49.072;17.462;2023-06-22T10:19:22;13.10;;;9.70;;
79792;SDS011;69279;49.072;17.462;2023-06-22T10:21:48;12.70;;;9.73;;
79792;SDS011;69279;49.072;17.462;2023-06-22T10:24:13;10.40;;;9.07;;
79792;SDS011;69279;49.072;17.462;2023-06-22T10:26:39;10.70;;;9.48;;
79792;SDS011;69279;49.072;17.462;2023-06-22T10:29:04;11.73;;;9.30;;
79792;SDS011;69279;49.072;17.462;2023-06-22T10:31:29;12.25;;;8.95;;
79792;SDS011;69279;49.072;17.462;2023-06-22T10:33:55;10.95;;;9.85;;
79792;SDS011;69279;49.072;17.462;2023-06-22T10:36:21;10.70;;;9.25;;
79792;SDS011;69279;49.072;17.462;2023-06-22T10:38:47;10.95;;;9.82;;
79792;SDS011;69279;49.072;17.462;2023-06-22T10:41:14;11.55;;;9.50;;
79792;SDS011;69279;49.072;17.462;2023-06-22T10:43:41;10.25;;;8.27;;
79792;SDS011;69279;49.072;17.462;2023-06-22T10:46:07;11.38;;;8.65;;
79792;SDS011;69279;49.072;17.462;2023-06-22T10:48:36;10.48;;;8.63;;
79792;SDS011;69279;49.072;17.462;2023-06-22T10:51:03;10.82;;;9.75;;
79792;SDS011;69279;49.072;17.462;2023-06-22T10:53:40;11.20;;;9.10;;
79792;SDS011;69279;49.072;17.462;2023-06-22T10:56:07;11.18;;;8.70;;
79792;SDS011;69279;49.072;17.462;2023-06-22T10:58:32;9.63;;;8.50;;
79792;SDS011;69279;49.072;17.462;2023-06-22T11:00:57;12.40;;;9.43;;
79792;SDS011;69279;49.072;17.462;2023-06-22T11:03:24;10.02;;;9.02;;
79792;SDS011;69279;49.072;17.462;2023-06-22T11:05:49;9.38;;;8.48;;
79792;SDS011;69279;49.072;17.462;2023-06-22T11:08:16;9.75;;;8.32;;
79792;SDS011;69279;49.072;17.462;2023-06-22T11:10:41;11.57;;;9.20;;
79792;SDS011;69279;49.072;17.462;2023-06-22T11:13:08;9.50;;;8.40;;
79792;SDS011;69279;49.072;17.462;2023-06-22T11:15:35;12.82;;;8.10;;
79792;SDS011;69279;49.072;17.462;2023-06-22T11:18:00;10.85;;;9.40;;
79792;SDS011;69279;49.072;17.462;2023-06-22T11:20:26;9.52;;;8.50;;
79792;SDS011;69279;49.072;17.462;2023-06-22T11:22:51;9.48;;;8.43;;
79792;SDS011;69279;49.072;17.462;2023-06-22T11:25:17;9.50;;;8.45;;
79792;SDS011;69279;49.072;17.462;2023-06-22T11:27:42;9.20;;;8.30;;
79792;SDS011;69279;49.072;17.462;2023-06-22T11:30:08;9.02;;;8.20;;
79792;SDS011;69279;49.072;17.462;2023-06-22T11:32:34;10.15;;;8.25;;
79792;SDS011;69279;49.072;17.462;2023-06-22T11:35:00;9.60;;;8.70;;
79792;SDS011;69279;49.072;17.462;2023-06-22T11:37:26;8.55;;;7.60;;
79792;SDS011;69279;49.072;17.462;2023-06-22T11:39:51;8.48;;;7.07;;
79792;SDS011;69279;49.072;17.462;2023-06-22T11:42:19;9.07;;;7.70;;
79792;SDS011;69279;49.072;17.462;2023-06-22T11:44:45;9.95;;;7.00;;
79792;SDS011;69279;49.072;17.462;2023-06-22T11:47:10;8.10;;;7.30;;
79792;SDS011;69279;49.072;17.462;2023-06-22T11:49:36;8.20;;;7.40;;
79792;SDS011;69279;49.072;17.462;2023-06-22T11:52:01;8.50;;;6.85;;
79792;SDS011;69279;49.072;17.462;2023-06-22T11:54:27;8.02;;;7.03;;
79792;SDS011;69279;49.072;17.462;2023-06-22T11:56:52;7.90;;;7.10;;
79792;SDS011;69279;49.072;17.462;2023-06-22T11:59:18;7.72;;;6.93;;
79792;SDS011;69279;49.072;17.462;2023-06-22T12:01:43;8.70;;;7.05;;
79792;SDS011;69279;49.072;17.462;2023-06-22T12:04:10;8.15;;;7.45;;
79792;SDS011;69279;49.072;17.462;2023-06-22T12:06:37;9.93;;;7.22;;
79792;SDS011;69279;49.072;17.462;2023-06-22T12:09:06;8.43;;;7.07;;
79792;SDS011;69279;49.072;17.462;2023-06-22T12:11:31;8.05;;;6.57;;
79792;SDS011;69279;49.072;17.462;2023-06-22T12:13:59;9.55;;;7.10;;
79792;SDS011;69279;49.072;17.462;2023-06-22T12:16:27;7.55;;;6.85;;
79792;SDS011;69279;49.072;17.462;2023-06-22T12:18:56;7.95;;;7.15;;
79792;SDS011;69279;49.072;17.462;2023-06-22T12:21:21;7.10;;;6.40;;
79792;SDS011;69279;49.072;17.462;2023-06-22T12:23:47;7.85;;;6.95;;
79792;SDS011;69279;49.072;17.462;2023-06-22T12:26:13;7.57;;;6.88;;
79792;SDS011;69279;49.072;17.462;2023-06-22T12:28:39;10.52;;;6.68;;
79792;SDS011;69279;49.072;17.462;2023-06-22T12:31:04;8.38;;;6.88;;
79792;SDS011;69279;49.072;17.462;2023-06-22T12:33:30;8.50;;;6.50;;
79792;SDS011;69279;49.072;17.462;2023-06-22T12:35:56;7.93;;;6.55;;
79792;SDS011;69279;49.072;17.462;2023-06-22T12:38:21;6.95;;;6.28;;
79792;SDS011;69279;49.072;17.462;2023-06-22T12:40:47;7.38;;;6.53;;
79792;SDS011;69279;49.072;17.462;2023-06-22T12:43:14;7.55;;;6.38;;
79792;SDS011;69279;49.072;17.462;2023-06-22T12:45:39;8.23;;;6.45;;
79792;SDS011;69279;49.072;17.462;2023-06-22T12:48:06;6.88;;;5.82;;
79792;SDS011;69279;49.072;17.462;2023-06-22T12:50:33;7.15;;;6.43;;
79792;SDS011;69279;49.072;17.462;2023-06-22T12:53:00;8.60;;;6.65;;
79792;SDS011;69279;49.072;17.462;2023-06-22T12:55:27;6.93;;;6.22;;
79792;SDS011;69279;49.072;17.462;2023-06-22T12:57:53;7.57;;;6.28;;
79792;SDS011;69279;49.072;17.462;2023-06-22T13:00:18;7.05;;;6.35;;
79792;SDS011;69279;49.072;17.462;2023-06-22T13:02:44;6.85;;;6.15;;
79792;SDS011;69279;49.072;17.462;2023-06-22T13:05:10;6.97;;;6.28;;
79792;SDS011;69279;49.072;17.462;2023-06-22T13:07:35;7.13;;;6.32;;
79792;SDS011;69279;49.072;17.462;2023-06-22T13:10:01;7.00;;;5.90;;
79792;SDS011;69279;49.072;17.462;2023-06-22T13:12:27;8.50;;;6.75;;
79792;SDS011;69279;49.072;17.462;2023-06-22T13:14:52;7.57;;;6.68;;
79792;SDS011;69279;49.072;17.462;2023-06-22T13:17:18;7.72;;;6.50;;
79792;SDS011;69279;49.072;17.462;2023-06-22T13:22:36;10.30;;;6.47;;
79792;SDS011;69279;49.072;17.462;2023-06-22T13:25:08;9.05;;;6.68;;
79792;SDS011;69279;49.072;17.462;2023-06-22T13:27:42;8.35;;;7.00;;
79792;SDS011;69279;49.072;17.462;2023-06-22T13:30:08;8.00;;;7.22;;
79792;SDS011;69279;49.072;17.462;2023-06-22T13:32:35;8.02;;;7.22;;
79792;SDS011;69279;49.072;17.462;2023-06-22T13:35:00;7.50;;;6.70;;
79792;SDS011;69279;49.072;17.462;2023-06-22T13:37:27;9.57;;;7.03;;
79792;SDS011;69279;49.072;17.462;2023-06-22T13:39:53;6.97;;;6.28;;
79792;SDS011;69279;49.072;17.462;2023-06-22T13:42:22;7.53;;;6.80;;
79792;SDS011;69279;49.072;17.462;2023-06-22T13:44:47;7.47;;;6.78;;
79792;SDS011;69279;49.072;17.462;2023-06-22T13:47:12;7.53;;;6.82;;
79792;SDS011;69279;49.072;17.462;2023-06-22T13:49:38;8.20;;;6.90;;
79792;SDS011;69279;49.072;17.462;2023-06-22T13:52:03;8.20;;;7.15;;
79792;SDS011;69279;49.072;17.462;2023-06-22T13:54:31;8.68;;;7.10;;
79792;SDS011;69279;49.072;17.462;2023-06-22T13:56:57;8.40;;;7.40;;
79792;SDS011;69279;49.072;17.462;2023-06-22T13:59:22;8.15;;;7.30;;
79792;SDS011;69279;49.072;17.462;2023-06-22T14:01:48;9.35;;;7.43;;
79792;SDS011;69279;49.072;17.462;2023-06-22T14:04:13;9.10;;;7.20;;
79792;SDS011;69279;49.072;17.462;2023-06-22T14:06:39;9.38;;;7.03;;
79792;SDS011;69279;49.072;17.462;2023-06-22T14:09:05;8.68;;;7.38;;
79792;SDS011;69279;49.072;17.462;2023-06-22T14:11:30;7.25;;;6.13;;
79792;SDS011;69279;49.072;17.462;2023-06-22T14:13:56;7.13;;;6.43;;
79792;SDS011;69279;49.072;17.462;2023-06-22T14:16:21;7.03;;;6.13;;
79792;SDS011;69279;49.072;17.462;2023-06-22T14:18:48;6.60;;;5.82;;
79792;SDS011;69279;49.072;17.462;2023-06-22T14:21:13;7.65;;;6.18;;
79792;SDS011;69279;49.072;17.462;2023-06-22T14:23:38;7.88;;;6.57;;
79792;SDS011;69279;49.072;17.462;2023-06-22T14:26:04;7.32;;;6.30;;
79792;SDS011;69279;49.072;17.462;2023-06-22T14:28:29;7.93;;;6.10;;
79792;SDS011;69279;49.072;17.462;2023-06-22T14:30:55;7.63;;;6.13;;
79792;SDS011;69279;49.072;17.462;2023-06-22T14:33:22;7.97;;;6.30;;
79792;SDS011;69279;49.072;17.462;2023-06-22T14:35:47;7.43;;;6.45;;
79792;SDS011;69279;49.072;17.462;2023-06-22T14:38:13;8.25;;;6.68;;
79792;SDS011;69279;49.072;17.462;2023-06-22T14:40:39;7.10;;;6.40;;
79792;SDS011;69279;49.072;17.462;2023-06-22T14:43:04;9.57;;;7.25;;
79792;SDS011;69279;49.072;17.462;2023-06-22T14:45:30;6.45;;;5.82;;
79792;SDS011;69279;49.072;17.462;2023-06-22T14:47:55;8.30;;;6.35;;
79792;SDS011;69279;49.072;17.462;2023-06-22T14:50:20;7.20;;;6.47;;